Conroy, Iowa
Current Conditions -  °F | °C
As of 9:52 AM on Tuesday 21 Oct 2014 (Local Time) from KCID Reporting Station
Clear Clear  
Wind Chill: 50°   Ceiling: Unl
Heat Index: 50°   Visibility: 10mi
Dew Point: 42°   Wind: 10mph
Humidity: 74%   Direction: 80°E
Pressure: 30.19"   Gusts: NA
Location:  41.73°N, 92°W
Report Text: KCID 211452Z 08009KT 10SM CLR 10/06 A3019 RMK AO2 SLP228 T01000056 51020
Loading
Personal Weather Stations






























Interactive Weather Map
Tropical Storm Tracking
New forecast layout! Learn more

10-Day Weather Forecast

Advertisements
Track Severe Weather on mobile